createdAt,value
2018-08-17T00:00:52.390Z,18.50
2018-08-17T00:03:20.578Z,18.49
2018-08-17T00:05:48.820Z,18.56
2018-08-17T00:08:17.016Z,18.53
2018-08-17T00:10:45.260Z,18.49
2018-08-17T00:13:13.450Z,18.36
2018-08-17T00:15:41.682Z,18.31
2018-08-17T00:18:09.900Z,18.29
2018-08-17T00:20:38.162Z,18.20
2018-08-17T00:23:06.428Z,18.15
2018-08-17T00:25:35.288Z,18.11
2018-08-17T00:28:03.790Z,18.11
2018-08-17T00:30:32.229Z,18.14
2018-08-17T00:33:00.450Z,18.15
2018-08-17T00:35:28.663Z,18.12
2018-08-17T00:37:56.889Z,18.11
2018-08-17T00:40:25.780Z,18.03
2018-08-17T00:42:54.061Z,18.01
2018-08-17T00:45:22.541Z,18.02
2018-08-17T00:47:50.737Z,17.99
2018-08-17T00:50:18.936Z,17.95
2018-08-17T00:52:47.161Z,17.97
2018-08-17T00:55:15.473Z,17.99
2018-08-17T00:57:43.677Z,17.91
2018-08-17T01:00:11.861Z,17.78
2018-08-17T01:02:40.392Z,17.70
2018-08-17T01:05:08.923Z,17.66
2018-08-17T01:07:37.279Z,17.57
2018-08-17T01:10:05.883Z,17.53
2018-08-17T01:12:34.058Z,17.45
2018-08-17T01:15:02.238Z,17.35
2018-08-17T01:17:31.567Z,17.32
2018-08-17T01:19:59.874Z,17.33
2018-08-17T01:22:28.110Z,17.28
2018-08-17T01:24:56.326Z,17.31
2018-08-17T01:27:24.498Z,17.22
2018-08-17T01:29:52.793Z,17.14
2018-08-17T01:32:21.446Z,17.08
2018-08-17T01:34:50.086Z,17.03
2018-08-17T01:37:18.697Z,17.07
2018-08-17T01:39:47.286Z,16.91
2018-08-17T01:42:15.479Z,16.85
2018-08-17T01:44:43.785Z,16.76
2018-08-17T01:47:12.077Z,16.68
2018-08-17T01:49:40.441Z,16.69
2018-08-17T01:52:08.901Z,16.63
2018-08-17T01:54:37.523Z,16.63
2018-08-17T01:57:05.779Z,16.56
2018-08-17T01:59:34.005Z,16.52
2018-08-17T02:02:02.195Z,16.52
2018-08-17T02:04:30.456Z,16.45
2018-08-17T02:06:58.720Z,16.40
2018-08-17T02:09:26.927Z,16.33
2018-08-17T02:11:55.168Z,16.29
2018-08-17T02:14:23.382Z,16.24
2018-08-17T02:16:51.698Z,16.27
2018-08-17T02:19:19.909Z,16.32
2018-08-17T02:21:48.117Z,16.26
2018-08-17T02:24:16.416Z,16.21
2018-08-17T02:26:44.578Z,16.19
2018-08-17T02:29:12.749Z,16.28
2018-08-17T02:31:40.953Z,16.22
2018-08-17T02:34:09.162Z,16.19
2018-08-17T02:36:37.358Z,16.13
2018-08-17T02:39:06.766Z,16.06
2018-08-17T02:41:34.937Z,16.03
2018-08-17T02:44:03.125Z,16.01
2018-08-17T02:46:31.569Z,15.95
2018-08-17T02:48:59.831Z,15.91
2018-08-17T02:51:28.015Z,15.91
2018-08-17T02:53:56.607Z,15.76
2018-08-17T02:56:24.819Z,15.70
2018-08-17T02:58:53.014Z,15.52
2018-08-17T03:01:21.471Z,15.60
2018-08-17T03:03:49.694Z,15.53
2018-08-17T03:06:18.174Z,15.44
2018-08-17T03:08:46.483Z,15.44
2018-08-17T03:11:14.733Z,15.37
2018-08-17T03:13:42.909Z,15.29
2018-08-17T03:16:11.105Z,15.25
2018-08-17T03:18:39.289Z,15.17
2018-08-17T03:21:07.528Z,15.17
2018-08-17T03:23:35.714Z,15.16
2018-08-17T03:26:03.892Z,15.13
2018-08-17T03:28:32.157Z,15.09
2018-08-17T03:31:00.442Z,15.04
2018-08-17T03:33:28.620Z,15.07
2018-08-17T03:35:56.797Z,15.05
2018-08-17T03:38:24.982Z,15.00
2018-08-17T03:40:53.181Z,14.98
2018-08-17T03:43:21.675Z,15.01
2018-08-17T03:45:49.871Z,15.00
2018-08-17T03:48:18.045Z,14.96
2018-08-17T03:50:46.437Z,14.89
2018-08-17T03:53:14.625Z,14.83
2018-08-17T03:55:42.815Z,14.75
2018-08-17T03:58:10.989Z,14.75
2018-08-17T04:00:39.259Z,14.77
2018-08-17T04:03:07.442Z,14.71
2018-08-17T04:05:35.731Z,14.74
2018-08-17T04:08:04.415Z,14.65
2018-08-17T04:10:32.589Z,14.71
2018-08-17T04:13:00.823Z,14.68
2018-08-17T04:15:29.056Z,14.73
2018-08-17T04:17:57.216Z,14.61
2018-08-17T04:20:25.388Z,14.64
2018-08-17T04:22:53.659Z,14.68
2018-08-17T04:25:21.922Z,14.77
2018-08-17T04:27:50.171Z,14.79
2018-08-17T04:30:18.419Z,14.76
2018-08-17T04:32:46.638Z,14.76
2018-08-17T04:35:14.898Z,14.83
2018-08-17T04:37:43.707Z,15.04
2018-08-17T04:40:11.992Z,15.12
2018-08-17T04:42:40.173Z,15.13
2018-08-17T04:45:09.017Z,15.17
2018-08-17T04:47:37.205Z,15.09
2018-08-17T04:50:06.249Z,15.23
2018-08-17T04:52:34.434Z,15.39
2018-08-17T04:55:02.661Z,15.38
2018-08-17T04:57:30.838Z,15.29
2018-08-17T04:59:59.393Z,15.43
2018-08-17T05:02:27.581Z,15.50
2018-08-17T05:04:55.758Z,15.53
2018-08-17T05:07:24.039Z,15.62
2018-08-17T05:09:52.301Z,15.72
2018-08-17T05:12:21.253Z,15.78
2018-08-17T05:14:50.272Z,16.04
2018-08-17T05:17:18.417Z,15.78
2018-08-17T05:19:46.643Z,16.13
2018-08-17T05:22:14.829Z,16.35
2018-08-17T05:24:43.096Z,16.24
2018-08-17T05:27:11.681Z,16.17
2018-08-17T05:29:39.969Z,16.17
2018-08-17T05:32:08.698Z,16.66
2018-08-17T05:34:36.877Z,16.78
2018-08-17T05:37:05.458Z,16.99
2018-08-17T05:39:33.673Z,16.56
2018-08-17T05:42:01.859Z,17.03
2018-08-17T05:44:30.144Z,17.29
2018-08-17T05:46:58.405Z,17.42
2018-08-17T05:49:26.676Z,17.49
2018-08-17T05:51:55.075Z,17.19
2018-08-17T05:54:23.255Z,17.67
2018-08-17T05:56:51.442Z,17.59
2018-08-17T05:59:19.658Z,17.91
2018-08-17T06:01:47.901Z,17.55
2018-08-17T06:04:16.078Z,17.88
2018-08-17T06:06:44.286Z,17.74
2018-08-17T06:09:12.462Z,17.79
2018-08-17T06:11:40.692Z,18.50
2018-08-17T06:14:08.829Z,18.59
2018-08-17T06:16:37.863Z,18.63
2018-08-17T06:19:06.223Z,18.62
2018-08-17T06:21:34.386Z,18.67
2018-08-17T06:24:02.698Z,19.23
2018-08-17T06:26:30.876Z,19.36
2018-08-17T06:28:59.125Z,19.37
2018-08-17T06:31:27.391Z,19.46
2018-08-17T06:33:55.698Z,19.70
2018-08-17T06:36:24.112Z,19.87
2018-08-17T06:38:52.418Z,20.04
2018-08-17T06:41:21.006Z,20.07
2018-08-17T06:43:49.206Z,20.33
2018-08-17T06:46:17.458Z,20.41
2018-08-17T06:48:45.650Z,20.77
2018-08-17T06:51:21.141Z,20.69
2018-08-17T06:53:49.346Z,20.69
2018-08-17T06:56:17.529Z,20.79
2018-08-17T06:58:46.073Z,21.08
2018-08-17T07:01:14.303Z,21.04
2018-08-17T07:03:42.501Z,21.08
2018-08-17T07:06:10.679Z,21.33
2018-08-17T07:08:39.040Z,21.46
2018-08-17T07:11:07.161Z,21.59
2018-08-17T07:13:35.362Z,21.95
2018-08-17T07:16:03.545Z,21.94
2018-08-17T07:18:31.814Z,22.09
2018-08-17T07:21:00.292Z,22.31
2018-08-17T07:23:28.560Z,22.42
2018-08-17T07:25:56.860Z,22.57
2018-08-17T07:28:25.251Z,22.68
2018-08-17T07:30:53.486Z,22.70
2018-08-17T07:33:21.699Z,22.78
2018-08-17T07:35:49.941Z,23.01
2018-08-17T07:38:18.082Z,23.24
2018-08-17T07:40:46.247Z,23.28
2018-08-17T07:43:14.672Z,23.02
2018-08-17T07:45:42.930Z,23.50
2018-08-17T07:48:11.263Z,23.66
2018-08-17T07:50:39.300Z,24.19
2018-08-17T07:53:07.651Z,24.38
2018-08-17T07:55:35.838Z,24.48
2018-08-17T07:58:04.162Z,24.38
2018-08-17T08:00:32.330Z,24.63
2018-08-17T08:03:00.518Z,24.07
2018-08-17T08:05:28.786Z,24.01
2018-08-17T08:07:57.327Z,24.03
2018-08-17T08:10:25.593Z,24.49
2018-08-17T08:12:53.785Z,25.04
2018-08-17T08:15:22.470Z,25.32
2018-08-17T08:17:52.076Z,25.34
2018-08-17T08:20:33.812Z,25.04
2018-08-17T08:23:13.766Z,25.08
2018-08-17T08:25:42.154Z,24.56
2018-08-17T08:28:10.515Z,24.77
2018-08-17T08:30:38.768Z,24.38
2018-08-17T08:33:07.154Z,25.11
2018-08-17T08:35:35.405Z,25.42
2018-08-17T08:38:03.581Z,25.48
2018-08-17T08:40:31.841Z,26.36
2018-08-17T08:43:00.117Z,25.66
2018-08-17T08:45:28.360Z,24.91
2018-08-17T08:47:56.812Z,25.37
2018-08-17T08:50:24.974Z,25.77
2018-08-17T08:52:53.141Z,26.64
2018-08-17T08:55:21.454Z,27.09
2018-08-17T08:57:49.932Z,26.50
2018-08-17T09:00:18.182Z,26.27
2018-08-17T09:02:46.386Z,26.60
2018-08-17T09:05:14.628Z,26.82
2018-08-17T09:07:42.898Z,27.43
2018-08-17T09:10:11.338Z,26.96
2018-08-17T09:12:39.522Z,27.00
2018-08-17T09:15:09.433Z,26.95
2018-08-17T09:17:38.526Z,26.98
2018-08-17T09:20:08.080Z,27.02
2018-08-17T09:22:36.258Z,27.18
2018-08-17T09:25:04.451Z,27.85
2018-08-17T09:27:32.633Z,27.92
2018-08-17T09:30:00.942Z,27.65
2018-08-17T09:32:29.126Z,27.83
2018-08-17T09:34:57.317Z,27.29
2018-08-17T09:37:25.829Z,27.95
2018-08-17T09:39:54.075Z,28.42
2018-08-17T09:42:22.257Z,27.94
2018-08-17T09:44:50.539Z,28.34
2018-08-17T09:47:18.773Z,28.59
2018-08-17T09:49:46.966Z,28.76
2018-08-17T09:52:15.180Z,28.58
2018-08-17T09:54:43.464Z,28.80
2018-08-17T09:57:11.658Z,28.07
2018-08-17T09:59:39.846Z,28.70
2018-08-17T10:02:13.613Z,28.65
2018-08-17T10:04:46.089Z,28.34
2018-08-17T10:07:19.776Z,28.66
2018-08-17T10:09:53.353Z,28.77
2018-08-17T10:12:21.564Z,28.46
2018-08-17T10:14:50.090Z,28.76
2018-08-17T10:17:18.296Z,28.20
2018-08-17T10:19:46.612Z,29.17
2018-08-17T10:22:14.837Z,29.50
2018-08-17T10:24:43.119Z,29.78
2018-08-17T10:27:11.342Z,29.35
2018-08-17T10:29:39.998Z,29.53
2018-08-17T10:32:08.370Z,28.76
2018-08-17T10:34:36.626Z,28.11
2018-08-17T10:37:05.118Z,29.53
2018-08-17T10:39:33.321Z,30.13
2018-08-17T10:42:01.594Z,30.16
2018-08-17T10:44:29.869Z,29.79
2018-08-17T10:46:58.209Z,29.84
2018-08-17T10:49:26.445Z,29.96
2018-08-17T10:51:56.895Z,30.29
2018-08-17T10:54:25.373Z,29.79
2018-08-17T10:56:53.735Z,31.10
2018-08-17T10:59:21.937Z,31.73
2018-08-17T11:01:50.143Z,32.03
2018-08-17T11:04:18.411Z,32.16
2018-08-17T11:06:46.881Z,32.53
2018-08-17T11:09:15.146Z,32.54
2018-08-17T11:11:43.786Z,38.73
2018-08-17T11:14:12.009Z,42.71
2018-08-17T11:16:40.240Z,42.67
2018-08-17T11:19:08.581Z,40.67
2018-08-17T11:21:36.776Z,43.39
2018-08-17T11:24:05.002Z,45.65
2018-08-17T11:26:34.500Z,46.10
2018-08-17T11:29:02.683Z,44.64
2018-08-17T11:31:30.962Z,43.66
2018-08-17T11:33:59.180Z,47.24
2018-08-17T11:36:27.401Z,43.34
2018-08-17T11:38:55.562Z,48.07
2018-08-17T11:41:24.070Z,48.05
2018-08-17T11:43:52.830Z,41.18
2018-08-17T11:46:21.117Z,42.80
2018-08-17T11:48:49.725Z,47.29
2018-08-17T11:51:17.909Z,41.05
2018-08-17T11:53:47.437Z,41.16
2018-08-17T11:56:15.541Z,45.26
2018-08-17T11:58:43.725Z,47.33
2018-08-17T12:01:32.518Z,47.47
2018-08-17T12:04:00.711Z,49.63
2018-08-17T12:06:28.903Z,50.56
2018-08-17T12:08:57.063Z,51.94
2018-08-17T12:11:25.497Z,44.45
2018-08-17T12:13:53.675Z,46.59
2018-08-17T12:16:22.660Z,40.43
2018-08-17T12:18:50.919Z,41.87
2018-08-17T12:21:19.103Z,46.71
2018-08-17T12:23:47.290Z,47.24
2018-08-17T12:26:15.462Z,47.97
2018-08-17T12:28:43.642Z,50.40
2018-08-17T12:31:12.026Z,51.67
2018-08-17T12:33:40.222Z,53.82
2018-08-17T12:36:08.412Z,54.39
2018-08-17T12:38:36.614Z,55.09
2018-08-17T12:41:05.113Z,55.13
2018-08-17T12:43:37.470Z,51.12
2018-08-17T12:46:05.637Z,47.49
2018-08-17T12:48:33.823Z,51.93
2018-08-17T12:51:08.116Z,53.22
2018-08-17T12:53:36.347Z,53.72
2018-08-17T12:56:04.651Z,54.81
2018-08-17T12:58:32.820Z,52.19
2018-08-17T13:01:01.001Z,52.10
2018-08-17T13:03:29.174Z,49.89
2018-08-17T13:05:57.692Z,52.64
2018-08-17T13:08:25.892Z,52.40
2018-08-17T13:10:56.539Z,55.47
2018-08-17T13:13:24.652Z,52.33
2018-08-17T13:15:58.230Z,54.39
2018-08-17T13:18:26.395Z,55.38
2018-08-17T13:20:54.606Z,48.54
2018-08-17T13:23:22.789Z,52.88
2018-08-17T13:25:50.999Z,51.74
2018-08-17T13:28:19.173Z,48.39
2018-08-17T13:30:47.658Z,48.95
2018-08-17T13:33:15.842Z,52.37
2018-08-17T13:35:44.075Z,54.57
2018-08-17T13:38:12.241Z,52.18
2018-08-17T13:40:40.500Z,53.50
2018-08-17T13:43:08.670Z,54.15
2018-08-17T13:45:38.202Z,54.31
2018-08-17T13:48:06.414Z,55.78
2018-08-17T13:50:34.645Z,55.62
2018-08-17T13:53:02.926Z,53.67
2018-08-17T13:55:31.235Z,55.16
2018-08-17T13:57:59.493Z,49.81
2018-08-17T14:00:27.750Z,49.90
2018-08-17T14:02:55.977Z,52.51
2018-08-17T14:05:24.225Z,53.19
2018-08-17T14:07:52.384Z,55.40
2018-08-17T14:10:20.598Z,55.89
2018-08-17T14:12:48.771Z,52.56
2018-08-17T14:15:17.023Z,50.93
2018-08-17T14:17:46.047Z,53.05
2018-08-17T14:20:15.530Z,52.46
2018-08-17T14:22:43.758Z,53.31
2018-08-17T14:25:12.422Z,53.43
2018-08-17T14:27:40.690Z,51.23
2018-08-17T14:30:16.320Z,51.01
2018-08-17T14:32:45.056Z,53.92
2018-08-17T14:35:13.648Z,53.95
2018-08-17T14:37:41.802Z,55.22
2018-08-17T14:40:10.875Z,49.06
2018-08-17T14:42:39.470Z,50.04
2018-08-17T14:45:08.910Z,50.68
2018-08-17T14:47:37.458Z,50.59
2018-08-17T14:50:07.794Z,50.44
2018-08-17T14:52:35.982Z,48.59
2018-08-17T14:55:04.342Z,50.00
2018-08-17T14:57:32.590Z,48.61
2018-08-17T15:00:00.917Z,45.23
2018-08-17T15:02:29.126Z,43.59
2018-08-17T15:04:57.545Z,39.63
2018-08-17T15:07:26.130Z,39.08
2018-08-17T15:09:54.317Z,38.40
2018-08-17T15:12:22.507Z,37.61
2018-08-17T15:14:51.002Z,36.58
2018-08-17T15:17:19.196Z,35.40
2018-08-17T15:19:47.364Z,35.50
2018-08-17T15:22:15.579Z,33.87
2018-08-17T15:24:43.747Z,33.66
2018-08-17T15:27:11.987Z,32.82
2018-08-17T15:29:40.206Z,33.48
2018-08-17T15:32:08.938Z,34.66
2018-08-17T15:34:37.168Z,35.10
2018-08-17T15:37:05.354Z,34.11
2018-08-17T15:39:33.590Z,33.79
2018-08-17T15:42:01.870Z,32.55
2018-08-17T15:44:30.062Z,31.70
2018-08-17T15:46:58.850Z,32.78
2018-08-17T15:49:33.010Z,32.56
2018-08-17T15:52:02.342Z,34.99
2018-08-17T15:54:30.760Z,33.51
2018-08-17T15:56:58.998Z,33.34
2018-08-17T15:59:27.230Z,33.83
2018-08-17T16:01:55.733Z,33.49
2018-08-17T16:04:23.962Z,33.14
2018-08-17T16:06:52.166Z,32.79
2018-08-17T16:09:20.382Z,32.48
2018-08-17T16:11:48.591Z,32.81
2018-08-17T16:14:16.783Z,33.17
2018-08-17T16:16:45.019Z,32.85
2018-08-17T16:19:13.549Z,33.10
2018-08-17T16:21:41.730Z,32.91
2018-08-17T16:24:09.900Z,32.32
2018-08-17T16:26:38.686Z,31.47
2018-08-17T16:29:06.895Z,31.62
2018-08-17T16:31:36.880Z,30.78
2018-08-17T16:34:05.202Z,31.49
2018-08-17T16:36:35.990Z,31.65
2018-08-17T16:39:06.658Z,32.03
2018-08-17T16:41:34.892Z,31.50
2018-08-17T16:44:03.378Z,31.74
2018-08-17T16:46:31.662Z,31.49
2018-08-17T16:48:59.871Z,31.16
2018-08-17T16:51:27.974Z,31.85
2018-08-17T16:53:56.314Z,31.00
2018-08-17T16:56:24.538Z,31.23
2018-08-17T16:58:53.151Z,31.33
2018-08-17T17:01:21.631Z,31.62
2018-08-17T17:03:49.825Z,31.39
2018-08-17T17:06:18.007Z,31.18
2018-08-17T17:08:46.366Z,30.54
2018-08-17T17:11:14.565Z,30.51
2018-08-17T17:13:43.130Z,30.59
2018-08-17T17:16:11.321Z,30.52
2018-08-17T17:18:39.505Z,30.42
2018-08-17T17:21:07.764Z,30.31
2018-08-17T17:23:44.814Z,30.03
2018-08-17T17:26:13.480Z,30.04
2018-08-17T17:28:41.765Z,30.01
2018-08-17T17:31:10.359Z,29.89
2018-08-17T17:33:38.545Z,29.64
2018-08-17T17:36:06.746Z,29.71
2018-08-17T17:38:34.945Z,29.64
2018-08-17T17:41:03.454Z,29.57
2018-08-17T17:43:31.643Z,29.39
2018-08-17T17:45:59.839Z,29.47
2018-08-17T17:48:28.018Z,29.17
2018-08-17T17:50:56.358Z,29.08
2018-08-17T17:53:24.585Z,28.97
2018-08-17T17:55:52.821Z,28.80
2018-08-17T17:58:21.528Z,28.63
2018-08-17T18:00:56.769Z,28.39
2018-08-17T18:03:26.099Z,28.26
2018-08-17T18:05:54.275Z,28.13
2018-08-17T18:08:22.485Z,28.08
2018-08-17T18:10:50.711Z,28.01
2018-08-17T18:13:18.931Z,27.73
2018-08-17T18:15:47.131Z,27.62
2018-08-17T18:18:15.352Z,27.47
2018-08-17T18:20:43.859Z,27.28
2018-08-17T18:23:12.145Z,27.16
2018-08-17T18:25:40.494Z,26.91
2018-08-17T18:28:08.751Z,26.91
2018-08-17T18:30:36.986Z,26.90
2018-08-17T18:33:05.165Z,26.81
2018-08-17T18:35:33.367Z,26.56
2018-08-17T18:38:01.591Z,26.46
2018-08-17T18:40:30.165Z,26.14
2018-08-17T18:42:58.380Z,25.91
2018-08-17T18:45:26.572Z,25.74
2018-08-17T18:47:55.130Z,25.62
2018-08-17T18:50:23.306Z,25.61
2018-08-17T18:52:51.591Z,25.59
2018-08-17T18:55:19.740Z,25.34
2018-08-17T18:57:47.940Z,25.29
2018-08-17T19:00:16.465Z,25.16
2018-08-17T19:02:45.097Z,25.12
2018-08-17T19:05:13.290Z,25.08
2018-08-17T19:07:41.486Z,25.01
2018-08-17T19:10:10.557Z,24.88
2018-08-17T19:12:38.659Z,24.83
2018-08-17T19:15:09.398Z,24.60
2018-08-17T19:17:38.478Z,24.57
2018-08-17T19:20:08.734Z,24.33
2018-08-17T19:22:38.515Z,24.30
2018-08-17T19:25:07.969Z,24.21
2018-08-17T19:27:37.401Z,24.18
2018-08-17T19:30:08.739Z,24.13
2018-08-17T19:32:36.920Z,24.09
2018-08-17T19:35:05.230Z,24.01
2018-08-17T19:37:33.942Z,23.80
2018-08-17T19:40:02.211Z,23.59
2018-08-17T19:42:30.482Z,23.56
2018-08-17T19:44:58.705Z,23.55
2018-08-17T19:47:26.937Z,23.55
2018-08-17T19:49:55.149Z,23.49
2018-08-17T19:52:23.398Z,23.45
2018-08-17T19:54:51.604Z,23.40
2018-08-17T19:57:20.053Z,23.34
2018-08-17T19:59:48.241Z,23.27
2018-08-17T20:02:16.966Z,23.24
2018-08-17T20:04:45.233Z,23.24
2018-08-17T20:07:13.628Z,23.15
2018-08-17T20:09:41.829Z,23.10
2018-08-17T20:12:10.011Z,23.04
2018-08-17T20:14:38.210Z,22.98
2018-08-17T20:17:06.600Z,22.94
2018-08-17T20:19:40.055Z,22.84
2018-08-17T20:22:18.740Z,22.79
2018-08-17T20:24:47.270Z,22.77
2018-08-17T20:27:15.678Z,22.77
2018-08-17T20:29:44.314Z,22.79
2018-08-17T20:32:12.513Z,22.70
2018-08-17T20:34:42.906Z,22.61
2018-08-17T20:37:12.078Z,22.66
2018-08-17T20:39:41.468Z,22.78
2018-08-17T20:42:10.266Z,22.70
2018-08-17T20:44:38.518Z,22.76
2018-08-17T20:47:06.841Z,22.62
2018-08-17T20:49:35.059Z,22.52
2018-08-17T20:52:03.887Z,22.62
2018-08-17T20:54:32.460Z,22.59
2018-08-17T20:57:01.363Z,22.39
2018-08-17T20:59:29.798Z,22.37
2018-08-17T21:01:58.681Z,22.19
2018-08-17T21:04:26.855Z,22.16
2018-08-17T21:06:55.499Z,22.05
2018-08-17T21:09:23.736Z,22.15
2018-08-17T21:11:51.909Z,21.96
2018-08-17T21:14:20.112Z,21.81
2018-08-17T21:16:48.650Z,21.77
2018-08-17T21:19:17.373Z,21.80
2018-08-17T21:21:45.625Z,21.63
2018-08-17T21:24:13.729Z,21.67
2018-08-17T21:26:41.933Z,21.68
2018-08-17T21:29:10.195Z,21.50
2018-08-17T21:31:38.318Z,21.53
2018-08-17T21:34:06.594Z,21.52
2018-08-17T21:36:34.863Z,21.60
2018-08-17T21:39:14.959Z,21.59
2018-08-17T21:41:44.584Z,21.54
2018-08-17T21:44:13.961Z,21.59
2018-08-17T21:46:46.879Z,21.61
2018-08-17T21:49:15.143Z,21.56
2018-08-17T21:51:43.318Z,21.58
2018-08-17T21:54:11.508Z,21.53
2018-08-17T21:56:39.729Z,21.41
2018-08-17T21:59:08.015Z,21.33
2018-08-17T22:01:36.214Z,21.40
2018-08-17T22:04:04.416Z,21.44
2018-08-17T22:06:32.884Z,21.40
2018-08-17T22:09:01.210Z,21.19
2018-08-17T22:11:35.121Z,20.91
2018-08-17T22:14:03.870Z,20.75
2018-08-17T22:16:32.118Z,20.75
2018-08-17T22:19:00.361Z,20.78
2018-08-17T22:21:28.529Z,20.75
2018-08-17T22:23:57.133Z,20.72
2018-08-17T22:26:25.713Z,20.71
2018-08-17T22:28:54.301Z,20.55
2018-08-17T22:31:35.013Z,20.65
2018-08-17T22:34:03.230Z,20.53
2018-08-17T22:36:32.054Z,20.35
2018-08-17T22:39:00.248Z,20.34
2018-08-17T22:41:28.559Z,20.32
2018-08-17T22:43:57.263Z,20.32
2018-08-17T22:46:25.445Z,20.18
2018-08-17T22:48:53.886Z,20.38
2018-08-17T22:51:21.928Z,20.16
2018-08-17T22:53:50.103Z,20.04
2018-08-17T22:56:18.323Z,19.95
2018-08-17T22:58:48.445Z,19.82
2018-08-17T23:01:17.926Z,19.85
2018-08-17T23:03:53.838Z,19.91
2018-08-17T23:06:22.978Z,19.84
2018-08-17T23:08:51.188Z,19.77
2018-08-17T23:11:28.442Z,19.76
2018-08-17T23:13:58.918Z,19.71
2018-08-17T23:16:27.097Z,19.64
2018-08-17T23:18:55.726Z,19.69
2018-08-17T23:21:23.914Z,19.66
2018-08-17T23:23:52.464Z,19.50
2018-08-17T23:26:20.660Z,19.66
2018-08-17T23:28:49.230Z,19.52
2018-08-17T23:31:17.418Z,19.39
2018-08-17T23:33:45.642Z,19.32
2018-08-17T23:36:13.830Z,19.25
2018-08-17T23:38:42.027Z,19.26
2018-08-17T23:41:10.292Z,19.32
2018-08-17T23:43:38.458Z,19.25
2018-08-17T23:46:06.901Z,19.19
2018-08-17T23:48:35.105Z,19.24
2018-08-17T23:51:03.353Z,19.13
2018-08-17T23:53:31.551Z,19.04
2018-08-17T23:55:59.927Z,19.18
2018-08-17T23:58:28.145Z,19.18
